<?xml version="1.0" encoding="UTF-8" standalone="no" ?>
<gpx xmlns="http://www.topografix.com/GPX/1/1" xmlns:xsi="http://www.w3.org/2001/XMLSchema-instance" xsi:schemaLocation="http://www.topografix.com/GPX/1/1 http://www.topografix.com/GPX/1/1/gpx.xsd" version="1.1" creator="VisuGPX - https://www.visugpx.com">
  <metadata>
    <name>Clermont-Ferrand - Massat - Pau par François</name>
    <desc><![CDATA[Trajet effectué par François sur la "Diagonale du vide" en aout 2020]]></desc>
  </metadata>
  <trk>
    <name><![CDATA[route105]]></name>
    <trkseg>
      <trkpt lat="44.93173" lon="4.01731">
        <ele>991.4</ele>
        <time>2020-08-18T04:57:14Z</time>
      </trkpt>
      <trkpt lat="44.93156" lon="4.01857">
        <ele>990.3</ele>
        <time>2020-08-18T04:57:51Z</time>
      </trkpt>
      <trkpt lat="44.93114" lon="4.01992">
        <ele>989.6</ele>
        <time>2020-08-18T04:58:21Z</time>
      </trkpt>
      <trkpt lat="44.93121" lon="4.02134">
        <ele>989.6</ele>
        <time>2020-08-18T04:58:46Z</time>
      </trkpt>
      <trkpt lat="44.93142" lon="4.02268">
        <ele>989</ele>
        <time>2020-08-18T04:59:11Z</time>
      </trkpt>
      <trkpt lat="44.93163" lon="4.024">
        <ele>988.3</ele>
        <time>2020-08-18T04:59:36Z</time>
      </trkpt>
      <trkpt lat="44.93201" lon="4.02544">
        <ele>987.3</ele>
        <time>2020-08-18T05:00:06Z</time>
      </trkpt>
      <trkpt lat="44.93195" lon="4.02674">
        <ele>986.6</ele>
        <time>2020-08-18T05:00:31Z</time>
      </trkpt>
      <trkpt lat="44.93162" lon="4.02804">
        <ele>986.3</ele>
        <time>2020-08-18T05:00:56Z</time>
      </trkpt>
      <trkpt lat="44.93129" lon="4.02926">
        <ele>986</ele>
        <time>2020-08-18T05:01:21Z</time>
      </trkpt>
      <trkpt lat="44.93093" lon="4.03052">
        <ele>985.3</ele>
        <time>2020-08-18T05:01:46Z</time>
      </trkpt>
      <trkpt lat="44.93106" lon="4.03187">
        <ele>984.6</ele>
        <time>2020-08-18T05:02:11Z</time>
      </trkpt>
      <trkpt lat="44.93118" lon="4.03326">
        <ele>983.9</ele>
        <time>2020-08-18T05:02:36Z</time>
      </trkpt>
      <trkpt lat="44.93114" lon="4.03467">
        <ele>983.2</ele>
        <time>2020-08-18T05:03:01Z</time>
      </trkpt>
      <trkpt lat="44.93098" lon="4.03606">
        <ele>982.7</ele>
        <time>2020-08-18T05:03:26Z</time>
      </trkpt>
      <trkpt lat="44.93064" lon="4.03739">
        <ele>982.1</ele>
        <time>2020-08-18T05:03:51Z</time>
      </trkpt>
      <trkpt lat="44.93005" lon="4.03844">
        <ele>981.7</ele>
        <time>2020-08-18T05:04:15Z</time>
      </trkpt>
      <trkpt lat="44.92918" lon="4.03935">
        <ele>981.6</ele>
        <time>2020-08-18T05:04:40Z</time>
      </trkpt>
      <trkpt lat="44.92833" lon="4.04011">
        <ele>981.3</ele>
        <time>2020-08-18T05:05:05Z</time>
      </trkpt>
      <trkpt lat="44.92742" lon="4.04071">
        <ele>981.5</ele>
        <time>2020-08-18T05:05:40Z</time>
      </trkpt>
      <trkpt lat="44.92671" lon="4.04146">
        <ele>982</ele>
        <time>2020-08-18T05:06:15Z</time>
      </trkpt>
      <trkpt lat="44.92585" lon="4.04183">
        <ele>982.6</ele>
        <time>2020-08-18T05:06:50Z</time>
      </trkpt>
      <trkpt lat="44.92502" lon="4.04228">
        <ele>983.4</ele>
        <time>2020-08-18T05:07:30Z</time>
      </trkpt>
      <trkpt lat="44.92447" lon="4.0433">
        <ele>984.3</ele>
        <time>2020-08-18T05:08:10Z</time>
      </trkpt>
      <trkpt lat="44.92389" lon="4.04427">
        <ele>984.8</ele>
        <time>2020-08-18T05:08:45Z</time>
      </trkpt>
      <trkpt lat="44.92336" lon="4.04543">
        <ele>985.4</ele>
        <time>2020-08-18T05:09:25Z</time>
      </trkpt>
      <trkpt lat="44.92356" lon="4.04672">
        <ele>986.1</ele>
        <time>2020-08-18T05:10:05Z</time>
      </trkpt>
      <trkpt lat="44.92408" lon="4.04785">
        <ele>986.7</ele>
        <time>2020-08-18T05:10:52Z</time>
      </trkpt>
      <trkpt lat="44.92479" lon="4.04885">
        <ele>987.8</ele>
        <time>2020-08-18T05:11:49Z</time>
      </trkpt>
      <trkpt lat="44.92548" lon="4.04988">
        <ele>989.2</ele>
        <time>2020-08-18T05:12:50Z</time>
      </trkpt>
      <trkpt lat="44.92603" lon="4.05099">
        <ele>990.9</ele>
        <time>2020-08-18T05:13:51Z</time>
      </trkpt>
      <trkpt lat="44.92595" lon="4.05227">
        <ele>992.2</ele>
        <time>2020-08-18T05:14:37Z</time>
      </trkpt>
      <trkpt lat="44.92589" lon="4.05362">
        <ele>993.3</ele>
        <time>2020-08-18T05:15:23Z</time>
      </trkpt>
      <trkpt lat="44.92569" lon="4.05494">
        <ele>994.5</ele>
        <time>2020-08-18T05:16:08Z</time>
      </trkpt>
      <trkpt lat="44.92516" lon="4.05606">
        <ele>995.9</ele>
        <time>2020-08-18T05:16:53Z</time>
      </trkpt>
      <trkpt lat="44.92466" lon="4.05725">
        <ele>997.4</ele>
        <time>2020-08-18T05:17:39Z</time>
      </trkpt>
      <trkpt lat="44.9246" lon="4.05863">
        <ele>999.1</ele>
        <time>2020-08-18T05:18:24Z</time>
      </trkpt>
      <trkpt lat="44.92467" lon="4.05999">
        <ele>1001.6</ele>
        <time>2020-08-18T05:18:49Z</time>
      </trkpt>
      <trkpt lat="44.9253" lon="4.06133">
        <ele>1002.4</ele>
        <time>2020-08-18T05:19:14Z</time>
      </trkpt>
      <trkpt lat="44.92588" lon="4.06247">
        <ele>1003.1</ele>
        <time>2020-08-18T05:19:39Z</time>
      </trkpt>
      <trkpt lat="44.92646" lon="4.06371">
        <ele>1003.6</ele>
        <time>2020-08-18T05:20:09Z</time>
      </trkpt>
      <trkpt lat="44.92667" lon="4.06497">
        <ele>1006.2</ele>
        <time>2020-08-18T05:21:06Z</time>
      </trkpt>
      <trkpt lat="44.92672" lon="4.06634">
        <ele>1010.8</ele>
        <time>2020-08-18T05:22:17Z</time>
      </trkpt>
      <trkpt lat="44.92736" lon="4.06736">
        <ele>1015.9</ele>
        <time>2020-08-18T05:23:28Z</time>
      </trkpt>
      <trkpt lat="44.92767" lon="4.06864">
        <ele>1020.6</ele>
        <time>2020-08-18T05:24:40Z</time>
      </trkpt>
      <trkpt lat="44.92801" lon="4.06988">
        <ele>1027</ele>
        <time>2020-08-18T05:25:49Z</time>
      </trkpt>
      <trkpt lat="44.92806" lon="4.07123">
        <ele>1035</ele>
        <time>2020-08-18T05:26:59Z</time>
      </trkpt>
      <trkpt lat="44.92802" lon="4.07259">
        <ele>1041.8</ele>
        <time>2020-08-18T05:28:10Z</time>
      </trkpt>
      <trkpt lat="44.92796" lon="4.07394">
        <ele>1047.5</ele>
        <time>2020-08-18T05:29:20Z</time>
      </trkpt>
      <trkpt lat="44.92831" lon="4.07524">
        <ele>1053.8</ele>
        <time>2020-08-18T05:30:30Z</time>
      </trkpt>
      <trkpt lat="44.92836" lon="4.07668">
        <ele>1060.5</ele>
        <time>2020-08-18T05:31:23Z</time>
      </trkpt>
      <trkpt lat="44.92835" lon="4.07803">
        <ele>1066</ele>
        <time>2020-08-18T05:32:08Z</time>
      </trkpt>
      <trkpt lat="44.92821" lon="4.07948">
        <ele>1071.3</ele>
        <time>2020-08-18T05:32:52Z</time>
      </trkpt>
      <trkpt lat="44.92914" lon="4.08056">
        <ele>1077.2</ele>
        <time>2020-08-18T05:33:17Z</time>
      </trkpt>
      <trkpt lat="44.92899" lon="4.08196">
        <ele>1077.7</ele>
        <time>2020-08-18T05:33:32Z</time>
      </trkpt>
      <trkpt lat="44.92804" lon="4.08215">
        <ele>1078.8</ele>
        <time>2020-08-18T05:33:57Z</time>
      </trkpt>
      <trkpt lat="44.92746" lon="4.08316">
        <ele>1080.2</ele>
        <time>2020-08-18T05:34:58Z</time>
      </trkpt>
      <trkpt lat="44.92703" lon="4.08426">
        <ele>1082.7</ele>
        <time>2020-08-18T05:35:54Z</time>
      </trkpt>
      <trkpt lat="44.92668" lon="4.08553">
        <ele>1085.5</ele>
        <time>2020-08-18T05:36:55Z</time>
      </trkpt>
      <trkpt lat="44.92685" lon="4.08685">
        <ele>1089.7</ele>
        <time>2020-08-18T05:37:52Z</time>
      </trkpt>
      <trkpt lat="44.9269" lon="4.08813">
        <ele>1093.9</ele>
        <time>2020-08-18T05:38:40Z</time>
      </trkpt>
      <trkpt lat="44.92676" lon="4.08951">
        <ele>1098.3</ele>
        <time>2020-08-18T05:39:35Z</time>
      </trkpt>
      <trkpt lat="44.92667" lon="4.0908">
        <ele>1102.5</ele>
        <time>2020-08-18T05:40:24Z</time>
      </trkpt>
      <trkpt lat="44.92668" lon="4.09217">
        <ele>1106.4</ele>
        <time>2020-08-18T05:41:22Z</time>
      </trkpt>
      <trkpt lat="44.92653" lon="4.09342">
        <ele>1109.1</ele>
        <time>2020-08-18T05:42:14Z</time>
      </trkpt>
      <trkpt lat="44.92641" lon="4.09469">
        <ele>1111.7</ele>
        <time>2020-08-18T05:43:00Z</time>
      </trkpt>
      <trkpt lat="44.92622" lon="4.09605">
        <ele>1113.5</ele>
        <time>2020-08-18T05:43:40Z</time>
      </trkpt>
      <trkpt lat="44.926" lon="4.09742">
        <ele>1116.1</ele>
        <time>2020-08-18T05:44:25Z</time>
      </trkpt>
      <trkpt lat="44.92583" lon="4.09866">
        <ele>1118.5</ele>
        <time>2020-08-18T05:45:05Z</time>
      </trkpt>
      <trkpt lat="44.92568" lon="4.09994">
        <ele>1120.5</ele>
        <time>2020-08-18T05:45:40Z</time>
      </trkpt>
      <trkpt lat="44.92564" lon="4.10135">
        <ele>1122.5</ele>
        <time>2020-08-18T05:46:15Z</time>
      </trkpt>
      <trkpt lat="44.92554" lon="4.10265">
        <ele>1126</ele>
        <time>2020-08-18T05:47:00Z</time>
      </trkpt>
      <trkpt lat="44.92497" lon="4.10377">
        <ele>1130.2</ele>
        <time>2020-08-18T05:47:45Z</time>
      </trkpt>
      <trkpt lat="44.92432" lon="4.10482">
        <ele>1133.2</ele>
        <time>2020-08-18T05:48:20Z</time>
      </trkpt>
      <trkpt lat="44.92354" lon="4.10551">
        <ele>1136.6</ele>
        <time>2020-08-18T05:49:00Z</time>
      </trkpt>
      <trkpt lat="44.92266" lon="4.10601">
        <ele>1140.3</ele>
        <time>2020-08-18T05:49:45Z</time>
      </trkpt>
      <trkpt lat="44.92173" lon="4.10644">
        <ele>1144.8</ele>
        <time>2020-08-18T05:50:44Z</time>
      </trkpt>
      <trkpt lat="44.92107" lon="4.10743">
        <ele>1147.8</ele>
        <time>2020-08-18T05:51:47Z</time>
      </trkpt>
      <trkpt lat="44.92047" lon="4.10836">
        <ele>1150.4</ele>
        <time>2020-08-18T05:52:43Z</time>
      </trkpt>
      <trkpt lat="44.91998" lon="4.10945">
        <ele>1154</ele>
        <time>2020-08-18T05:53:39Z</time>
      </trkpt>
      <trkpt lat="44.91955" lon="4.11056">
        <ele>1157.6</ele>
        <time>2020-08-18T05:54:32Z</time>
      </trkpt>
      <trkpt lat="44.91889" lon="4.11163">
        <ele>1163</ele>
        <time>2020-08-18T05:54:57Z</time>
      </trkpt>
      <trkpt lat="44.91809" lon="4.11295">
        <ele>1163.6</ele>
        <time>2020-08-18T05:55:12Z</time>
      </trkpt>
      <trkpt lat="44.91705" lon="4.11352">
        <ele>1165.4</ele>
        <time>2020-08-18T05:55:27Z</time>
      </trkpt>
      <trkpt lat="44.91622" lon="4.11399">
        <ele>1173.1</ele>
        <time>2020-08-18T05:56:14Z</time>
      </trkpt>
      <trkpt lat="44.91534" lon="4.11452">
        <ele>1184.5</ele>
        <time>2020-08-18T05:57:25Z</time>
      </trkpt>
      <trkpt lat="44.91439" lon="4.11481">
        <ele>1192.1</ele>
        <time>2020-08-18T05:58:33Z</time>
      </trkpt>
      <trkpt lat="44.91352" lon="4.11538">
        <ele>1197.7</ele>
        <time>2020-08-18T05:59:41Z</time>
      </trkpt>
      <trkpt lat="44.91293" lon="4.1163">
        <ele>1203</ele>
        <time>2020-08-18T06:00:48Z</time>
      </trkpt>
      <trkpt lat="44.9125" lon="4.11739">
        <ele>1209.3</ele>
        <time>2020-08-18T06:01:52Z</time>
      </trkpt>
      <trkpt lat="44.91224" lon="4.11861">
        <ele>1213.7</ele>
        <time>2020-08-18T06:02:43Z</time>
      </trkpt>
      <trkpt lat="44.912" lon="4.11997">
        <ele>1217.9</ele>
        <time>2020-08-18T06:03:40Z</time>
      </trkpt>
      <trkpt lat="44.91159" lon="4.1212">
        <ele>1221.9</ele>
        <time>2020-08-18T06:04:48Z</time>
      </trkpt>
      <trkpt lat="44.91109" lon="4.12239">
        <ele>1225.2</ele>
        <time>2020-08-18T06:05:53Z</time>
      </trkpt>
      <trkpt lat="44.91057" lon="4.12354">
        <ele>1229.1</ele>
        <time>2020-08-18T06:07:02Z</time>
      </trkpt>
      <trkpt lat="44.90993" lon="4.12448">
        <ele>1232.1</ele>
        <time>2020-08-18T06:07:53Z</time>
      </trkpt>
      <trkpt lat="44.90924" lon="4.12542">
        <ele>1234.7</ele>
        <time>2020-08-18T06:08:39Z</time>
      </trkpt>
      <trkpt lat="44.90869" lon="4.12655">
        <ele>1237.7</ele>
        <time>2020-08-18T06:09:25Z</time>
      </trkpt>
      <trkpt lat="44.90836" lon="4.12773">
        <ele>1240.6</ele>
        <time>2020-08-18T06:10:14Z</time>
      </trkpt>
      <trkpt lat="44.90793" lon="4.12898">
        <ele>1244.4</ele>
        <time>2020-08-18T06:11:18Z</time>
      </trkpt>
      <trkpt lat="44.90764" lon="4.13025">
        <ele>1248.6</ele>
        <time>2020-08-18T06:12:17Z</time>
      </trkpt>
      <trkpt lat="44.90757" lon="4.13165">
        <ele>1254</ele>
        <time>2020-08-18T06:13:18Z</time>
      </trkpt>
      <trkpt lat="44.90735" lon="4.13301">
        <ele>1259.8</ele>
        <time>2020-08-18T06:14:11Z</time>
      </trkpt>
      <trkpt lat="44.90748" lon="4.13436">
        <ele>1266.3</ele>
        <time>2020-08-18T06:15:08Z</time>
      </trkpt>
      <trkpt lat="44.90749" lon="4.13565">
        <ele>1271.7</ele>
        <time>2020-08-18T06:16:00Z</time>
      </trkpt>
      <trkpt lat="44.90725" lon="4.13686">
        <ele>1276.5</ele>
        <time>2020-08-18T06:16:51Z</time>
      </trkpt>
      <trkpt lat="44.90692" lon="4.13808">
        <ele>1281.1</ele>
        <time>2020-08-18T06:17:43Z</time>
      </trkpt>
      <trkpt lat="44.90667" lon="4.13937">
        <ele>1285.3</ele>
        <time>2020-08-18T06:18:33Z</time>
      </trkpt>
      <trkpt lat="44.90627" lon="4.14062">
        <ele>1290.3</ele>
        <time>2020-08-18T06:19:30Z</time>
      </trkpt>
      <trkpt lat="44.90582" lon="4.14169">
        <ele>1295.7</ele>
        <time>2020-08-18T06:20:18Z</time>
      </trkpt>
      <trkpt lat="44.90544" lon="4.14284">
        <ele>1302.1</ele>
        <time>2020-08-18T06:21:07Z</time>
      </trkpt>
      <trkpt lat="44.90505" lon="4.14397">
        <ele>1306.5</ele>
        <time>2020-08-18T06:21:42Z</time>
      </trkpt>
      <trkpt lat="44.90473" lon="4.14525">
        <ele>1315.1</ele>
        <time>2020-08-18T06:22:54Z</time>
      </trkpt>
      <trkpt lat="44.90453" lon="4.1466">
        <ele>1324</ele>
        <time>2020-08-18T06:24:01Z</time>
      </trkpt>
      <trkpt lat="44.9046" lon="4.14798">
        <ele>1331.7</ele>
        <time>2020-08-18T06:25:10Z</time>
      </trkpt>
      <trkpt lat="44.90464" lon="4.14936">
        <ele>1338.3</ele>
        <time>2020-08-18T06:26:17Z</time>
      </trkpt>
      <trkpt lat="44.90449" lon="4.15071">
        <ele>1344.6</ele>
        <time>2020-08-18T06:27:23Z</time>
      </trkpt>
      <trkpt lat="44.90434" lon="4.15209">
        <ele>1350.3</ele>
        <time>2020-08-18T06:28:26Z</time>
      </trkpt>
      <trkpt lat="44.90415" lon="4.15345">
        <ele>1356.5</ele>
        <time>2020-08-18T06:29:42Z</time>
      </trkpt>
      <trkpt lat="44.90418" lon="4.15482">
        <ele>1381.8</ele>
        <time>2020-08-18T06:38:29Z</time>
      </trkpt>
      <trkpt lat="44.90379" lon="4.15601">
        <ele>1387</ele>
        <time>2020-08-18T06:39:49Z</time>
      </trkpt>
      <trkpt lat="44.90288" lon="4.15638">
        <ele>1389.4</ele>
        <time>2020-08-18T06:41:00Z</time>
      </trkpt>
      <trkpt lat="44.90338" lon="4.15754">
        <ele>1392.1</ele>
        <time>2020-08-18T07:01:02Z</time>
      </trkpt>
      <trkpt lat="44.90387" lon="4.15879">
        <ele>1392.1</ele>
        <time>2020-08-18T07:02:16Z</time>
      </trkpt>
      <trkpt lat="44.90385" lon="4.16009">
        <ele>1392.2</ele>
        <time>2020-08-18T07:02:56Z</time>
      </trkpt>
      <trkpt lat="44.9047" lon="4.15964">
        <ele>1392.3</ele>
        <time>2020-08-18T07:03:59Z</time>
      </trkpt>
      <trkpt lat="44.90534" lon="4.16069">
        <ele>1392.7</ele>
        <time>2020-08-18T07:05:29Z</time>
      </trkpt>
      <trkpt lat="44.90531" lon="4.16206">
        <ele>1393.4</ele>
        <time>2020-08-18T07:06:31Z</time>
      </trkpt>
      <trkpt lat="44.90527" lon="4.16344">
        <ele>1394.9</ele>
        <time>2020-08-18T07:07:38Z</time>
      </trkpt>
      <trkpt lat="44.90498" lon="4.16475">
        <ele>1396.5</ele>
        <time>2020-08-18T07:08:45Z</time>
      </trkpt>
      <trkpt lat="44.90472" lon="4.16601">
        <ele>1400.8</ele>
        <time>2020-08-18T07:09:53Z</time>
      </trkpt>
      <trkpt lat="44.90442" lon="4.16732">
        <ele>1405.8</ele>
        <time>2020-08-18T07:10:50Z</time>
      </trkpt>
      <trkpt lat="44.90408" lon="4.16856">
        <ele>1414</ele>
        <time>2020-08-18T07:11:58Z</time>
      </trkpt>
      <trkpt lat="44.90377" lon="4.16986">
        <ele>1427.8</ele>
        <time>2020-08-18T07:13:16Z</time>
      </trkpt>
      <trkpt lat="44.90341" lon="4.17109">
        <ele>1439.5</ele>
        <time>2020-08-18T07:14:24Z</time>
      </trkpt>
      <trkpt lat="44.90307" lon="4.17225">
        <ele>1446</ele>
        <time>2020-08-18T07:15:20Z</time>
      </trkpt>
      <trkpt lat="44.90267" lon="4.17348">
        <ele>1451.3</ele>
        <time>2020-08-18T07:16:16Z</time>
      </trkpt>
      <trkpt lat="44.90235" lon="4.17477">
        <ele>1457</ele>
        <time>2020-08-18T07:17:22Z</time>
      </trkpt>
      <trkpt lat="44.90199" lon="4.17602">
        <ele>1461.8</ele>
        <time>2020-08-18T07:18:24Z</time>
      </trkpt>
      <trkpt lat="44.90161" lon="4.17727">
        <ele>1466.5</ele>
        <time>2020-08-18T07:19:28Z</time>
      </trkpt>
      <trkpt lat="44.90125" lon="4.17854">
        <ele>1470.8</ele>
        <time>2020-08-18T07:20:31Z</time>
      </trkpt>
      <trkpt lat="44.90082" lon="4.17977">
        <ele>1476</ele>
        <time>2020-08-18T07:21:35Z</time>
      </trkpt>
      <trkpt lat="44.9003" lon="4.18092">
        <ele>1481.5</ele>
        <time>2020-08-18T07:22:39Z</time>
      </trkpt>
      <trkpt lat="44.8998" lon="4.18197">
        <ele>1486.5</ele>
        <time>2020-08-18T07:23:40Z</time>
      </trkpt>
      <trkpt lat="44.89934" lon="4.18317">
        <ele>1491.5</ele>
        <time>2020-08-18T07:24:43Z</time>
      </trkpt>
      <trkpt lat="44.89927" lon="4.18449">
        <ele>1504.9</ele>
        <time>2020-08-18T07:25:49Z</time>
      </trkpt>
      <trkpt lat="44.89964" lon="4.18583">
        <ele>1546</ele>
        <time>2020-08-18T07:33:41Z</time>
      </trkpt>
      <trkpt lat="44.90043" lon="4.18674">
        <ele>1547.4</ele>
        <time>2020-08-18T07:34:01Z</time>
      </trkpt>
      <trkpt lat="44.89916" lon="4.18667">
        <ele>1545.4</ele>
        <time>2020-08-18T07:34:21Z</time>
      </trkpt>
      <trkpt lat="44.89808" lon="4.18681">
        <ele>1544</ele>
        <time>2020-08-18T07:34:31Z</time>
      </trkpt>
      <trkpt lat="44.89705" lon="4.18633">
        <ele>1543.3</ele>
        <time>2020-08-18T07:34:41Z</time>
      </trkpt>
      <trkpt lat="44.89588" lon="4.18624">
        <ele>1541.4</ele>
        <time>2020-08-18T07:34:51Z</time>
      </trkpt>
      <trkpt lat="44.8947" lon="4.18591">
        <ele>1538.7</ele>
        <time>2020-08-18T07:35:01Z</time>
      </trkpt>
      <trkpt lat="44.89364" lon="4.18677">
        <ele>1535</ele>
        <time>2020-08-18T07:35:11Z</time>
      </trkpt>
      <trkpt lat="44.89269" lon="4.18715">
        <ele>1531.3</ele>
        <time>2020-08-18T07:35:21Z</time>
      </trkpt>
      <trkpt lat="44.89169" lon="4.1874">
        <ele>1517.7</ele>
        <time>2020-08-18T07:35:31Z</time>
      </trkpt>
      <trkpt lat="44.89092" lon="4.18858">
        <ele>1504.8</ele>
        <time>2020-08-18T07:35:41Z</time>
      </trkpt>
      <trkpt lat="44.89105" lon="4.1901">
        <ele>1500.4</ele>
        <time>2020-08-18T07:35:51Z</time>
      </trkpt>
      <trkpt lat="44.89149" lon="4.1916">
        <ele>1497.8</ele>
        <time>2020-08-18T07:36:01Z</time>
      </trkpt>
      <trkpt lat="44.8918" lon="4.19319">
        <ele>1493.8</ele>
        <time>2020-08-18T07:36:11Z</time>
      </trkpt>
      <trkpt lat="44.89209" lon="4.19446">
        <ele>1481.1</ele>
        <time>2020-08-18T07:36:21Z</time>
      </trkpt>
      <trkpt lat="44.89171" lon="4.19574">
        <ele>1471.1</ele>
        <time>2020-08-18T07:36:31Z</time>
      </trkpt>
      <trkpt lat="44.89111" lon="4.1969">
        <ele>1468.1</ele>
        <time>2020-08-18T07:36:41Z</time>
      </trkpt>
      <trkpt lat="44.8904" lon="4.19781">
        <ele>1466.4</ele>
        <time>2020-08-18T07:36:51Z</time>
      </trkpt>
      <trkpt lat="44.89012" lon="4.19923">
        <ele>1465.5</ele>
        <time>2020-08-18T07:37:01Z</time>
      </trkpt>
      <trkpt lat="44.89035" lon="4.20075">
        <ele>1448.7</ele>
        <time>2020-08-18T07:37:11Z</time>
      </trkpt>
      <trkpt lat="44.88978" lon="4.20235">
        <ele>1432.9</ele>
        <time>2020-08-18T07:37:26Z</time>
      </trkpt>
      <trkpt lat="44.8891" lon="4.20327">
        <ele>1426.8</ele>
        <time>2020-08-18T07:37:36Z</time>
      </trkpt>
      <trkpt lat="44.8883" lon="4.20454">
        <ele>1415.3</ele>
        <time>2020-08-18T07:37:46Z</time>
      </trkpt>
      <trkpt lat="44.88738" lon="4.20572">
        <ele>1397.3</ele>
        <time>2020-08-18T07:38:01Z</time>
      </trkpt>
      <trkpt lat="44.8864" lon="4.20628">
        <ele>1381.4</ele>
        <time>2020-08-18T07:38:16Z</time>
      </trkpt>
      <trkpt lat="44.88531" lon="4.20544">
        <ele>1367.6</ele>
        <time>2020-08-18T07:38:31Z</time>
      </trkpt>
      <trkpt lat="44.88421" lon="4.20609">
        <ele>1358.1</ele>
        <time>2020-08-18T07:38:46Z</time>
      </trkpt>
      <trkpt lat="44.88412" lon="4.2047">
        <ele>1350.7</ele>
        <time>2020-08-18T07:39:22Z</time>
      </trkpt>
      <trkpt lat="44.88374" lon="4.20347">
        <ele>1346.2</ele>
        <time>2020-08-18T07:40:24Z</time>
      </trkpt>
      <trkpt lat="44.88368" lon="4.20211">
        <ele>1344.8</ele>
        <time>2020-08-18T07:41:27Z</time>
      </trkpt>
      <trkpt lat="44.88418" lon="4.20096">
        <ele>1345.2</ele>
        <time>2020-08-18T07:42:14Z</time>
      </trkpt>
      <trkpt lat="44.88474" lon="4.19998">
        <ele>1347.3</ele>
        <time>2020-08-18T07:43:08Z</time>
      </trkpt>
      <trkpt lat="44.88421" lon="4.1989">
        <ele>1349.4</ele>
        <time>2020-08-18T07:44:09Z</time>
      </trkpt>
      <trkpt lat="44.88383" lon="4.19763">
        <ele>1351.2</ele>
        <time>2020-08-18T07:45:33Z</time>
      </trkpt>
      <trkpt lat="44.88378" lon="4.19617">
        <ele>1353.2</ele>
        <time>2020-08-18T07:46:28Z</time>
      </trkpt>
      <trkpt lat="44.88315" lon="4.19517">
        <ele>1354.6</ele>
        <time>2020-08-18T07:47:10Z</time>
      </trkpt>
      <trkpt lat="44.88287" lon="4.19382">
        <ele>1356.9</ele>
        <time>2020-08-18T07:48:10Z</time>
      </trkpt>
      <trkpt lat="44.88266" lon="4.19245">
        <ele>1358.9</ele>
        <time>2020-08-18T07:49:01Z</time>
      </trkpt>
      <trkpt lat="44.8827" lon="4.19118">
        <ele>1360.8</ele>
        <time>2020-08-18T07:49:44Z</time>
      </trkpt>
      <trkpt lat="44.88183" lon="4.19048">
        <ele>1362.5</ele>
        <time>2020-08-18T07:50:23Z</time>
      </trkpt>
      <trkpt lat="44.8814" lon="4.18922">
        <ele>1364.4</ele>
        <time>2020-08-18T07:51:05Z</time>
      </trkpt>
      <trkpt lat="44.88157" lon="4.18788">
        <ele>1366</ele>
        <time>2020-08-18T07:51:41Z</time>
      </trkpt>
      <trkpt lat="44.88101" lon="4.18684">
        <ele>1370.7</ele>
        <time>2020-08-18T07:53:05Z</time>
      </trkpt>
      <trkpt lat="44.88038" lon="4.18588">
        <ele>1379.8</ele>
        <time>2020-08-18T07:53:35Z</time>
      </trkpt>
      <trkpt lat="44.88053" lon="4.18444">
        <ele>1382.3</ele>
        <time>2020-08-18T07:54:10Z</time>
      </trkpt>
      <trkpt lat="44.87952" lon="4.18397">
        <ele>1386.4</ele>
        <time>2020-08-18T07:54:40Z</time>
      </trkpt>
      <trkpt lat="44.87875" lon="4.18463">
        <ele>1392.2</ele>
        <time>2020-08-18T07:55:22Z</time>
      </trkpt>
      <trkpt lat="44.87813" lon="4.18553">
        <ele>1400.4</ele>
        <time>2020-08-18T07:56:31Z</time>
      </trkpt>
      <trkpt lat="44.87787" lon="4.18422">
        <ele>1410.8</ele>
        <time>2020-08-18T07:58:21Z</time>
      </trkpt>
      <trkpt lat="44.87722" lon="4.18297">
        <ele>1416</ele>
        <time>2020-08-18T07:58:52Z</time>
      </trkpt>
      <trkpt lat="44.87663" lon="4.1819">
        <ele>1416.5</ele>
        <time>2020-08-18T07:59:12Z</time>
      </trkpt>
      <trkpt lat="44.87555" lon="4.18075">
        <ele>1416.3</ele>
        <time>2020-08-18T07:59:32Z</time>
      </trkpt>
      <trkpt lat="44.8747" lon="4.17988">
        <ele>1415.9</ele>
        <time>2020-08-18T07:59:42Z</time>
      </trkpt>
      <trkpt lat="44.87381" lon="4.17932">
        <ele>1415.9</ele>
        <time>2020-08-18T07:59:57Z</time>
      </trkpt>
      <trkpt lat="44.87463" lon="4.18046">
        <ele>1412.4</ele>
        <time>2020-08-18T08:00:22Z</time>
      </trkpt>
      <trkpt lat="44.87398" lon="4.18142">
        <ele>1414.6</ele>
        <time>2020-08-18T08:00:52Z</time>
      </trkpt>
      <trkpt lat="44.87326" lon="4.18214">
        <ele>1412.2</ele>
        <time>2020-08-18T08:01:46Z</time>
      </trkpt>
      <trkpt lat="44.87292" lon="4.18339">
        <ele>1414.7</ele>
        <time>2020-08-18T08:02:46Z</time>
      </trkpt>
      <trkpt lat="44.87224" lon="4.18432">
        <ele>1421.7</ele>
        <time>2020-08-18T08:04:02Z</time>
      </trkpt>
      <trkpt lat="44.87138" lon="4.18365">
        <ele>1428.8</ele>
        <time>2020-08-18T08:05:14Z</time>
      </trkpt>
      <trkpt lat="44.87063" lon="4.18282">
        <ele>1432.3</ele>
        <time>2020-08-18T08:06:15Z</time>
      </trkpt>
      <trkpt lat="44.87111" lon="4.18398">
        <ele>1438.6</ele>
        <time>2020-08-18T08:13:18Z</time>
      </trkpt>
      <trkpt lat="44.8715" lon="4.18524">
        <ele>1439.5</ele>
        <time>2020-08-18T08:14:13Z</time>
      </trkpt>
      <trkpt lat="44.8723" lon="4.18588">
        <ele>1440.8</ele>
        <time>2020-08-18T08:15:07Z</time>
      </trkpt>
      <trkpt lat="44.87329" lon="4.18594">
        <ele>1442.7</ele>
        <time>2020-08-18T08:16:02Z</time>
      </trkpt>
      <trkpt lat="44.87421" lon="4.1861">
        <ele>1444.5</ele>
        <time>2020-08-18T08:16:44Z</time>
      </trkpt>
      <trkpt lat="44.87519" lon="4.18683">
        <ele>1448.6</ele>
        <time>2020-08-18T08:17:14Z</time>
      </trkpt>
      <trkpt lat="44.87536" lon="4.18845">
        <ele>1449.6</ele>
        <time>2020-08-18T08:17:33Z</time>
      </trkpt>
      <trkpt lat="44.87472" lon="4.1897">
        <ele>1449</ele>
        <time>2020-08-18T08:17:48Z</time>
      </trkpt>
      <trkpt lat="44.87403" lon="4.19102">
        <ele>1450</ele>
        <time>2020-08-18T08:18:03Z</time>
      </trkpt>
      <trkpt lat="44.87377" lon="4.19269">
        <ele>1449.9</ele>
        <time>2020-08-18T08:18:18Z</time>
      </trkpt>
      <trkpt lat="44.87361" lon="4.19438">
        <ele>1449.8</ele>
        <time>2020-08-18T08:18:33Z</time>
      </trkpt>
      <trkpt lat="44.87349" lon="4.19587">
        <ele>1450.5</ele>
        <time>2020-08-18T08:18:48Z</time>
      </trkpt>
      <trkpt lat="44.87246" lon="4.19527">
        <ele>1448.6</ele>
        <time>2020-08-18T08:19:03Z</time>
      </trkpt>
      <trkpt lat="44.87153" lon="4.195">
        <ele>1448.4</ele>
        <time>2020-08-18T08:19:18Z</time>
      </trkpt>
      <trkpt lat="44.87061" lon="4.19515">
        <ele>1446.2</ele>
        <time>2020-08-18T08:19:38Z</time>
      </trkpt>
      <trkpt lat="44.86963" lon="4.1949">
        <ele>1447</ele>
        <time>2020-08-18T08:20:08Z</time>
      </trkpt>
      <trkpt lat="44.86875" lon="4.19448">
        <ele>1445.1</ele>
        <time>2020-08-18T08:20:43Z</time>
      </trkpt>
      <trkpt lat="44.86791" lon="4.19372">
        <ele>1443.7</ele>
        <time>2020-08-18T08:21:24Z</time>
      </trkpt>
      <trkpt lat="44.86685" lon="4.19382">
        <ele>1442.1</ele>
        <time>2020-08-18T08:21:49Z</time>
      </trkpt>
      <trkpt lat="44.86595" lon="4.19466">
        <ele>1442</ele>
        <time>2020-08-18T08:22:14Z</time>
      </trkpt>
      <trkpt lat="44.86518" lon="4.1954">
        <ele>1442.5</ele>
        <time>2020-08-18T08:22:29Z</time>
      </trkpt>
      <trkpt lat="44.86438" lon="4.19604">
        <ele>1442.8</ele>
        <time>2020-08-18T08:22:44Z</time>
      </trkpt>
      <trkpt lat="44.86356" lon="4.19659">
        <ele>1442.8</ele>
        <time>2020-08-18T08:22:59Z</time>
      </trkpt>
      <trkpt lat="44.86243" lon="4.19712">
        <ele>1443</ele>
        <time>2020-08-18T08:23:19Z</time>
      </trkpt>
      <trkpt lat="44.8615" lon="4.19747">
        <ele>1442.5</ele>
        <time>2020-08-18T08:23:34Z</time>
      </trkpt>
      <trkpt lat="44.86034" lon="4.19735">
        <ele>1441.3</ele>
        <time>2020-08-18T08:23:54Z</time>
      </trkpt>
      <trkpt lat="44.8593" lon="4.19784">
        <ele>1440.6</ele>
        <time>2020-08-18T08:24:14Z</time>
      </trkpt>
      <trkpt lat="44.85859" lon="4.19924">
        <ele>1437.7</ele>
        <time>2020-08-18T08:24:29Z</time>
      </trkpt>
      <trkpt lat="44.85731" lon="4.19904">
        <ele>1435.3</ele>
        <time>2020-08-18T08:24:44Z</time>
      </trkpt>
      <trkpt lat="44.85607" lon="4.19913">
        <ele>1431.8</ele>
        <time>2020-08-18T08:24:59Z</time>
      </trkpt>
      <trkpt lat="44.85539" lon="4.20007">
        <ele>1428.2</ele>
        <time>2020-08-18T08:25:09Z</time>
      </trkpt>
      <trkpt lat="44.85498" lon="4.20121">
        <ele>1425.1</ele>
        <time>2020-08-18T08:25:19Z</time>
      </trkpt>
      <trkpt lat="44.85487" lon="4.20247">
        <ele>1423.8</ele>
        <time>2020-08-18T08:25:29Z</time>
      </trkpt>
      <trkpt lat="44.85466" lon="4.20428">
        <ele>1420.9</ele>
        <time>2020-08-18T08:25:44Z</time>
      </trkpt>
      <trkpt lat="44.85394" lon="4.20544">
        <ele>1416.1</ele>
        <time>2020-08-18T08:25:59Z</time>
      </trkpt>
      <trkpt lat="44.85301" lon="4.2054">
        <ele>1413.5</ele>
        <time>2020-08-18T08:26:14Z</time>
      </trkpt>
      <trkpt lat="44.85193" lon="4.20505">
        <ele>1409.5</ele>
        <time>2020-08-18T08:26:29Z</time>
      </trkpt>
      <trkpt lat="44.851" lon="4.20455">
        <ele>1408.4</ele>
        <time>2020-08-18T08:26:54Z</time>
      </trkpt>
      <trkpt lat="44.85022" lon="4.20374">
        <ele>1410.5</ele>
        <time>2020-08-18T08:28:00Z</time>
      </trkpt>
      <trkpt lat="44.84926" lon="4.20373">
        <ele>1413</ele>
        <time>2020-08-18T08:29:01Z</time>
      </trkpt>
      <trkpt lat="44.84829" lon="4.20389">
        <ele>1417.1</ele>
        <time>2020-08-18T08:30:03Z</time>
      </trkpt>
      <trkpt lat="44.84763" lon="4.20483">
        <ele>1418.3</ele>
        <time>2020-08-18T08:31:04Z</time>
      </trkpt>
      <trkpt lat="44.84829" lon="4.20613">
        <ele>1422.3</ele>
        <time>2020-08-18T08:31:45Z</time>
      </trkpt>
      <trkpt lat="44.84796" lon="4.20742">
        <ele>1424.2</ele>
        <time>2020-08-18T08:32:20Z</time>
      </trkpt>
      <trkpt lat="44.84748" lon="4.20855">
        <ele>1426.7</ele>
        <time>2020-08-18T08:33:09Z</time>
      </trkpt>
      <trkpt lat="44.8473" lon="4.20993">
        <ele>1429.1</ele>
        <time>2020-08-18T08:33:59Z</time>
      </trkpt>
      <trkpt lat="44.84676" lon="4.21097">
        <ele>1431.8</ele>
        <time>2020-08-18T08:34:45Z</time>
      </trkpt>
      <trkpt lat="44.84588" lon="4.21158">
        <ele>1434.8</ele>
        <time>2020-08-18T08:35:35Z</time>
      </trkpt>
      <trkpt lat="44.84502" lon="4.21201">
        <ele>1437.4</ele>
        <time>2020-08-18T08:36:21Z</time>
      </trkpt>
      <trkpt lat="44.84423" lon="4.21281">
        <ele>1439.6</ele>
        <time>2020-08-18T08:37:13Z</time>
      </trkpt>
      <trkpt lat="44.84396" lon="4.21404">
        <ele>1440.9</ele>
        <time>2020-08-18T08:37:43Z</time>
      </trkpt>
      <trkpt lat="44.8436" lon="4.21518">
        <ele>1442.1</ele>
        <time>2020-08-18T08:38:08Z</time>
      </trkpt>
      <trkpt lat="44.84311" lon="4.21625">
        <ele>1445.3</ele>
        <time>2020-08-18T08:38:28Z</time>
      </trkpt>
      <trkpt lat="44.8423" lon="4.2171">
        <ele>1446.5</ele>
        <time>2020-08-18T08:38:53Z</time>
      </trkpt>
      <trkpt lat="44.84182" lon="4.21849">
        <ele>1447.8</ele>
        <time>2020-08-18T08:39:18Z</time>
      </trkpt>
      <trkpt lat="44.84162" lon="4.21996">
        <ele>1448.8</ele>
        <time>2020-08-18T08:39:43Z</time>
      </trkpt>
      <trkpt lat="44.84132" lon="4.22135">
        <ele>1449.1</ele>
        <time>2020-08-18T08:40:08Z</time>
      </trkpt>
      <trkpt lat="44.8409" lon="4.22016">
        <ele>1449.6</ele>
        <time>2020-08-18T08:40:53Z</time>
      </trkpt>
      <trkpt lat="44.8406" lon="4.2188">
        <ele>1449.2</ele>
        <time>2020-08-18T08:41:03Z</time>
      </trkpt>
      <trkpt lat="44.84063" lon="4.21723">
        <ele>1447.8</ele>
        <time>2020-08-18T08:41:13Z</time>
      </trkpt>
      <trkpt lat="44.84068" lon="4.21567">
        <ele>1444.4</ele>
        <time>2020-08-18T08:41:23Z</time>
      </trkpt>
      <trkpt lat="44.84051" lon="4.21433">
        <ele>1437.2</ele>
        <time>2020-08-18T08:41:33Z</time>
      </trkpt>
      <trkpt lat="44.8406" lon="4.21246">
        <ele>1435.4</ele>
        <time>2020-08-18T08:41:43Z</time>
      </trkpt>
      <trkpt lat="44.84061" lon="4.21084">
        <ele>1430.9</ele>
        <time>2020-08-18T08:41:53Z</time>
      </trkpt>
      <trkpt lat="44.83983" lon="4.20975">
        <ele>1424.8</ele>
        <time>2020-08-18T08:42:03Z</time>
      </trkpt>
      <trkpt lat="44.83873" lon="4.2092">
        <ele>1419.6</ele>
        <time>2020-08-18T08:42:13Z</time>
      </trkpt>
      <trkpt lat="44.83759" lon="4.2087">
        <ele>1415.9</ele>
        <time>2020-08-18T08:42:23Z</time>
      </trkpt>
      <trkpt lat="44.83705" lon="4.2075">
        <ele>1405.5</ele>
        <time>2020-08-18T08:42:33Z</time>
      </trkpt>
      <trkpt lat="44.83703" lon="4.20581">
        <ele>1394.8</ele>
        <time>2020-08-18T08:42:43Z</time>
      </trkpt>
      <trkpt lat="44.8366" lon="4.20427">
        <ele>1389.8</ele>
        <time>2020-08-18T08:42:53Z</time>
      </trkpt>
      <trkpt lat="44.83619" lon="4.20304">
        <ele>1376.6</ele>
        <time>2020-08-18T08:43:24Z</time>
      </trkpt>
      <trkpt lat="44.83633" lon="4.2017">
        <ele>1364</ele>
        <time>2020-08-18T08:43:39Z</time>
      </trkpt>
      <trkpt lat="44.83635" lon="4.20039">
        <ele>1355.4</ele>
        <time>2020-08-18T08:43:49Z</time>
      </trkpt>
      <trkpt lat="44.83539" lon="4.19992">
        <ele>1349</ele>
        <time>2020-08-18T08:43:59Z</time>
      </trkpt>
      <trkpt lat="44.83428" lon="4.19964">
        <ele>1337.3</ele>
        <time>2020-08-18T08:44:08Z</time>
      </trkpt>
      <trkpt lat="44.83312" lon="4.19931">
        <ele>1328.2</ele>
        <time>2020-08-18T08:44:18Z</time>
      </trkpt>
      <trkpt lat="44.83197" lon="4.19911">
        <ele>1317.4</ele>
        <time>2020-08-18T08:44:28Z</time>
      </trkpt>
      <trkpt lat="44.83155" lon="4.19755">
        <ele>1311.5</ele>
        <time>2020-08-18T08:44:43Z</time>
      </trkpt>
      <trkpt lat="44.83063" lon="4.19712">
        <ele>1308.5</ele>
        <time>2020-08-18T08:44:58Z</time>
      </trkpt>
      <trkpt lat="44.82967" lon="4.19661">
        <ele>1306.2</ele>
        <time>2020-08-18T08:45:13Z</time>
      </trkpt>
      <trkpt lat="44.82901" lon="4.19558">
        <ele>1304.1</ele>
        <time>2020-08-18T08:45:28Z</time>
      </trkpt>
      <trkpt lat="44.8284" lon="4.19437">
        <ele>1297.4</ele>
        <time>2020-08-18T08:45:48Z</time>
      </trkpt>
      <trkpt lat="44.82746" lon="4.1942">
        <ele>1298.2</ele>
        <time>2020-08-18T08:46:08Z</time>
      </trkpt>
      <trkpt lat="44.82657" lon="4.1946">
        <ele>1293.2</ele>
        <time>2020-08-18T08:46:23Z</time>
      </trkpt>
      <trkpt lat="44.82551" lon="4.1948">
        <ele>1286.3</ele>
        <time>2020-08-18T08:46:38Z</time>
      </trkpt>
      <trkpt lat="44.82461" lon="4.19449">
        <ele>1283.5</ele>
        <time>2020-08-18T08:46:53Z</time>
      </trkpt>
      <trkpt lat="44.8237" lon="4.19404">
        <ele>1285.5</ele>
        <time>2020-08-18T08:47:13Z</time>
      </trkpt>
      <trkpt lat="44.82279" lon="4.19386">
        <ele>1286.5</ele>
        <time>2020-08-18T08:47:43Z</time>
      </trkpt>
      <trkpt lat="44.82182" lon="4.19365">
        <ele>1286.8</ele>
        <time>2020-08-18T08:48:24Z</time>
      </trkpt>
      <trkpt lat="44.82089" lon="4.19349">
        <ele>1288</ele>
        <time>2020-08-18T08:49:12Z</time>
      </trkpt>
      <trkpt lat="44.81993" lon="4.19335">
        <ele>1290.1</ele>
        <time>2020-08-18T08:50:04Z</time>
      </trkpt>
      <trkpt lat="44.81896" lon="4.19334">
        <ele>1302.9</ele>
        <time>2020-08-18T08:51:45Z</time>
      </trkpt>
      <trkpt lat="44.81805" lon="4.19359">
        <ele>1305.7</ele>
        <time>2020-08-18T08:59:24Z</time>
      </trkpt>
      <trkpt lat="44.81698" lon="4.19348">
        <ele>1304.8</ele>
        <time>2020-08-18T08:59:44Z</time>
      </trkpt>
      <trkpt lat="44.81598" lon="4.19328">
        <ele>1304.5</ele>
        <time>2020-08-18T09:00:04Z</time>
      </trkpt>
      <trkpt lat="44.81508" lon="4.19291">
        <ele>1304.5</ele>
        <time>2020-08-18T09:00:24Z</time>
      </trkpt>
      <trkpt lat="44.81464" lon="4.19134">
        <ele>1303.5</ele>
        <time>2020-08-18T09:00:44Z</time>
      </trkpt>
      <trkpt lat="44.81369" lon="4.19063">
        <ele>1302.1</ele>
        <time>2020-08-18T09:00:59Z</time>
      </trkpt>
      <trkpt lat="44.81272" lon="4.1903">
        <ele>1300.8</ele>
        <time>2020-08-18T09:01:24Z</time>
      </trkpt>
      <trkpt lat="44.81174" lon="4.18986">
        <ele>1295.1</ele>
        <time>2020-08-18T09:01:44Z</time>
      </trkpt>
      <trkpt lat="44.81076" lon="4.1898">
        <ele>1292.4</ele>
        <time>2020-08-18T09:02:04Z</time>
      </trkpt>
      <trkpt lat="44.80975" lon="4.18988">
        <ele>1291.2</ele>
        <time>2020-08-18T09:02:24Z</time>
      </trkpt>
      <trkpt lat="44.80876" lon="4.18943">
        <ele>1288.2</ele>
        <time>2020-08-18T09:02:44Z</time>
      </trkpt>
      <trkpt lat="44.80912" lon="4.18789">
        <ele>1282.3</ele>
        <time>2020-08-18T09:02:59Z</time>
      </trkpt>
      <trkpt lat="44.80819" lon="4.1883">
        <ele>1277.8</ele>
        <time>2020-08-18T09:03:14Z</time>
      </trkpt>
      <trkpt lat="44.80706" lon="4.18832">
        <ele>1273</ele>
        <time>2020-08-18T09:03:24Z</time>
      </trkpt>
      <trkpt lat="44.80609" lon="4.18769">
        <ele>1273.1</ele>
        <time>2020-08-18T09:03:34Z</time>
      </trkpt>
      <trkpt lat="44.80512" lon="4.18712">
        <ele>1270.7</ele>
        <time>2020-08-18T09:03:44Z</time>
      </trkpt>
      <trkpt lat="44.80419" lon="4.18653">
        <ele>1267.7</ele>
        <time>2020-08-18T09:03:54Z</time>
      </trkpt>
      <trkpt lat="44.80325" lon="4.18566">
        <ele>1256.8</ele>
        <time>2020-08-18T09:04:09Z</time>
      </trkpt>
      <trkpt lat="44.80262" lon="4.1844">
        <ele>1250.4</ele>
        <time>2020-08-18T09:04:24Z</time>
      </trkpt>
      <trkpt lat="44.80166" lon="4.18395">
        <ele>1249.8</ele>
        <time>2020-08-18T09:04:39Z</time>
      </trkpt>
      <trkpt lat="44.80051" lon="4.18411">
        <ele>1245.8</ele>
        <time>2020-08-18T09:04:54Z</time>
      </trkpt>
      <trkpt lat="44.79931" lon="4.18429">
        <ele>1242.3</ele>
        <time>2020-08-18T09:05:09Z</time>
      </trkpt>
      <trkpt lat="44.79824" lon="4.18457">
        <ele>1239.3</ele>
        <time>2020-08-18T09:05:24Z</time>
      </trkpt>
      <trkpt lat="44.79726" lon="4.18493">
        <ele>1237.6</ele>
        <time>2020-08-18T09:05:39Z</time>
      </trkpt>
      <trkpt lat="44.79629" lon="4.18469">
        <ele>1236.2</ele>
        <time>2020-08-18T09:05:54Z</time>
      </trkpt>
      <trkpt lat="44.79529" lon="4.1847">
        <ele>1234.2</ele>
        <time>2020-08-18T09:06:09Z</time>
      </trkpt>
      <trkpt lat="44.79427" lon="4.18476">
        <ele>1230.1</ele>
        <time>2020-08-18T09:06:24Z</time>
      </trkpt>
      <trkpt lat="44.7934" lon="4.18424">
        <ele>1226.5</ele>
        <time>2020-08-18T09:06:39Z</time>
      </trkpt>
      <trkpt lat="44.79259" lon="4.18362">
        <ele>1223.8</ele>
        <time>2020-08-18T09:06:54Z</time>
      </trkpt>
      <trkpt lat="44.79151" lon="4.18319">
        <ele>1220.6</ele>
        <time>2020-08-18T09:07:14Z</time>
      </trkpt>
      <trkpt lat="44.7905" lon="4.18402">
        <ele>1218.6</ele>
        <time>2020-08-18T09:07:34Z</time>
      </trkpt>
      <trkpt lat="44.78977" lon="4.18523">
        <ele>1216</ele>
        <time>2020-08-18T09:07:49Z</time>
      </trkpt>
      <trkpt lat="44.78878" lon="4.18563">
        <ele>1215.2</ele>
        <time>2020-08-18T09:08:04Z</time>
      </trkpt>
      <trkpt lat="44.78774" lon="4.18502">
        <ele>1214.1</ele>
        <time>2020-08-18T09:08:24Z</time>
      </trkpt>
      <trkpt lat="44.7868" lon="4.18448">
        <ele>1211.9</ele>
        <time>2020-08-18T09:08:44Z</time>
      </trkpt>
      <trkpt lat="44.78595" lon="4.18488">
        <ele>1210.8</ele>
        <time>2020-08-18T09:08:59Z</time>
      </trkpt>
      <trkpt lat="44.78513" lon="4.1855">
        <ele>1210.3</ele>
        <time>2020-08-18T09:09:14Z</time>
      </trkpt>
      <trkpt lat="44.7843" lon="4.18614">
        <ele>1209</ele>
        <time>2020-08-18T09:09:29Z</time>
      </trkpt>
      <trkpt lat="44.78311" lon="4.18595">
        <ele>1207.6</ele>
        <time>2020-08-18T09:09:49Z</time>
      </trkpt>
      <trkpt lat="44.78217" lon="4.18571">
        <ele>1206.2</ele>
        <time>2020-08-18T09:10:03Z</time>
      </trkpt>
      <trkpt lat="44.78141" lon="4.18469">
        <ele>1205.2</ele>
        <time>2020-08-18T09:10:18Z</time>
      </trkpt>
      <trkpt lat="44.78069" lon="4.18362">
        <ele>1204.9</ele>
        <time>2020-08-18T09:10:33Z</time>
      </trkpt>
      <trkpt lat="44.78" lon="4.18258">
        <ele>1203.7</ele>
        <time>2020-08-18T09:10:48Z</time>
      </trkpt>
      <trkpt lat="44.77917" lon="4.18131">
        <ele>1203.3</ele>
        <time>2020-08-18T09:11:08Z</time>
      </trkpt>
      <trkpt lat="44.77866" lon="4.18004">
        <ele>1202.7</ele>
        <time>2020-08-18T09:11:28Z</time>
      </trkpt>
      <trkpt lat="44.77861" lon="4.17867">
        <ele>1201.8</ele>
        <time>2020-08-18T09:11:48Z</time>
      </trkpt>
      <trkpt lat="44.77895" lon="4.17749">
        <ele>1200.6</ele>
        <time>2020-08-18T09:12:08Z</time>
      </trkpt>
      <trkpt lat="44.77951" lon="4.17636">
        <ele>1200.1</ele>
        <time>2020-08-18T09:12:33Z</time>
      </trkpt>
      <trkpt lat="44.77854" lon="4.17577">
        <ele>1196.6</ele>
        <time>2020-08-18T09:12:53Z</time>
      </trkpt>
      <trkpt lat="44.77764" lon="4.1757">
        <ele>1195.3</ele>
        <time>2020-08-18T09:13:08Z</time>
      </trkpt>
      <trkpt lat="44.77655" lon="4.17548">
        <ele>1195.9</ele>
        <time>2020-08-18T09:13:28Z</time>
      </trkpt>
      <trkpt lat="44.77634" lon="4.17411">
        <ele>1195.2</ele>
        <time>2020-08-18T09:13:53Z</time>
      </trkpt>
      <trkpt lat="44.77597" lon="4.17279">
        <ele>1198.5</ele>
        <time>2020-08-18T09:14:59Z</time>
      </trkpt>
      <trkpt lat="44.775" lon="4.17241">
        <ele>1202.8</ele>
        <time>2020-08-18T09:15:36Z</time>
      </trkpt>
      <trkpt lat="44.77403" lon="4.17197">
        <ele>1204.4</ele>
        <time>2020-08-18T09:16:01Z</time>
      </trkpt>
      <trkpt lat="44.77313" lon="4.1717">
        <ele>1205</ele>
        <time>2020-08-18T09:16:26Z</time>
      </trkpt>
      <trkpt lat="44.77295" lon="4.17007">
        <ele>1202.8</ele>
        <time>2020-08-18T09:16:51Z</time>
      </trkpt>
      <trkpt lat="44.77235" lon="4.16876">
        <ele>1201.8</ele>
        <time>2020-08-18T09:17:06Z</time>
      </trkpt>
      <trkpt lat="44.77164" lon="4.16781">
        <ele>1200.2</ele>
        <time>2020-08-18T09:17:21Z</time>
      </trkpt>
      <trkpt lat="44.77058" lon="4.16774">
        <ele>1196.9</ele>
        <time>2020-08-18T09:17:41Z</time>
      </trkpt>
      <trkpt lat="44.76972" lon="4.1687">
        <ele>1192.8</ele>
        <time>2020-08-18T09:18:11Z</time>
      </trkpt>
      <trkpt lat="44.76882" lon="4.16799">
        <ele>1190.5</ele>
        <time>2020-08-18T09:18:26Z</time>
      </trkpt>
      <trkpt lat="44.76853" lon="4.1664">
        <ele>1185.5</ele>
        <time>2020-08-18T09:18:46Z</time>
      </trkpt>
      <trkpt lat="44.76789" lon="4.16539">
        <ele>1183.4</ele>
        <time>2020-08-18T09:19:01Z</time>
      </trkpt>
      <trkpt lat="44.76699" lon="4.16449">
        <ele>1181.8</ele>
        <time>2020-08-18T09:19:21Z</time>
      </trkpt>
      <trkpt lat="44.76634" lon="4.16339">
        <ele>1179.1</ele>
        <time>2020-08-18T09:19:41Z</time>
      </trkpt>
      <trkpt lat="44.76538" lon="4.16266">
        <ele>1176.6</ele>
        <time>2020-08-18T09:20:01Z</time>
      </trkpt>
      <trkpt lat="44.76439" lon="4.16228">
        <ele>1178</ele>
        <time>2020-08-18T09:20:21Z</time>
      </trkpt>
      <trkpt lat="44.76338" lon="4.16231">
        <ele>1177.6</ele>
        <time>2020-08-18T09:20:41Z</time>
      </trkpt>
      <trkpt lat="44.76249" lon="4.16251">
        <ele>1177.8</ele>
        <time>2020-08-18T09:21:01Z</time>
      </trkpt>
      <trkpt lat="44.7617" lon="4.16167">
        <ele>1177.6</ele>
        <time>2020-08-18T09:21:31Z</time>
      </trkpt>
      <trkpt lat="44.76108" lon="4.16059">
        <ele>1177.2</ele>
        <time>2020-08-18T09:22:18Z</time>
      </trkpt>
      <trkpt lat="44.76024" lon="4.15991">
        <ele>1177.8</ele>
        <time>2020-08-18T09:23:15Z</time>
      </trkpt>
      <trkpt lat="44.76004" lon="4.15859">
        <ele>1179.1</ele>
        <time>2020-08-18T09:24:14Z</time>
      </trkpt>
      <trkpt lat="44.75953" lon="4.1574">
        <ele>1181</ele>
        <time>2020-08-18T09:25:10Z</time>
      </trkpt>
      <trkpt lat="44.75985" lon="4.15616">
        <ele>1184.3</ele>
        <time>2020-08-18T09:26:26Z</time>
      </trkpt>
      <trkpt lat="44.76068" lon="4.15552">
        <ele>1186</ele>
        <time>2020-08-18T09:27:01Z</time>
      </trkpt>
      <trkpt lat="44.76141" lon="4.1548">
        <ele>1187.8</ele>
        <time>2020-08-18T09:27:36Z</time>
      </trkpt>
      <trkpt lat="44.76202" lon="4.15375">
        <ele>1189.9</ele>
        <time>2020-08-18T09:28:21Z</time>
      </trkpt>
      <trkpt lat="44.76182" lon="4.15246">
        <ele>1192.3</ele>
        <time>2020-08-18T09:29:15Z</time>
      </trkpt>
      <trkpt lat="44.76123" lon="4.15132">
        <ele>1193.6</ele>
        <time>2020-08-18T09:30:02Z</time>
      </trkpt>
      <trkpt lat="44.76112" lon="4.14998">
        <ele>1197.3</ele>
        <time>2020-08-18T09:31:05Z</time>
      </trkpt>
      <trkpt lat="44.76085" lon="4.14869">
        <ele>1204.3</ele>
        <time>2020-08-18T09:32:00Z</time>
      </trkpt>
      <trkpt lat="44.76008" lon="4.1479">
        <ele>1211.4</ele>
        <time>2020-08-18T09:32:52Z</time>
      </trkpt>
      <trkpt lat="44.75919" lon="4.14745">
        <ele>1216.5</ele>
        <time>2020-08-18T09:33:40Z</time>
      </trkpt>
      <trkpt lat="44.75855" lon="4.14635">
        <ele>1222.9</ele>
        <time>2020-08-18T09:34:40Z</time>
      </trkpt>
      <trkpt lat="44.75824" lon="4.14508">
        <ele>1228</ele>
        <time>2020-08-18T09:35:42Z</time>
      </trkpt>
      <trkpt lat="44.75902" lon="4.14425">
        <ele>1232.6</ele>
        <time>2020-08-18T09:36:29Z</time>
      </trkpt>
      <trkpt lat="44.75927" lon="4.14289">
        <ele>1237.7</ele>
        <time>2020-08-18T09:37:25Z</time>
      </trkpt>
      <trkpt lat="44.75933" lon="4.14152">
        <ele>1242.2</ele>
        <time>2020-08-18T09:38:19Z</time>
      </trkpt>
      <trkpt lat="44.75881" lon="4.14038">
        <ele>1245.9</ele>
        <time>2020-08-18T09:39:10Z</time>
      </trkpt>
      <trkpt lat="44.75786" lon="4.13995">
        <ele>1250.5</ele>
        <time>2020-08-18T09:40:06Z</time>
      </trkpt>
      <trkpt lat="44.75741" lon="4.13881">
        <ele>1254.9</ele>
        <time>2020-08-18T09:41:01Z</time>
      </trkpt>
      <trkpt lat="44.7574" lon="4.13742">
        <ele>1257.5</ele>
        <time>2020-08-18T09:41:55Z</time>
      </trkpt>
      <trkpt lat="44.75686" lon="4.13636">
        <ele>1260.6</ele>
        <time>2020-08-18T09:42:37Z</time>
      </trkpt>
      <trkpt lat="44.75594" lon="4.13609">
        <ele>1266</ele>
        <time>2020-08-18T09:43:26Z</time>
      </trkpt>
      <trkpt lat="44.75522" lon="4.13693">
        <ele>1275.2</ele>
        <time>2020-08-18T09:44:15Z</time>
      </trkpt>
      <trkpt lat="44.7545" lon="4.13592">
        <ele>1283.3</ele>
        <time>2020-08-18T09:45:14Z</time>
      </trkpt>
      <trkpt lat="44.75357" lon="4.1353">
        <ele>1289.5</ele>
        <time>2020-08-18T09:45:44Z</time>
      </trkpt>
      <trkpt lat="44.75258" lon="4.13513">
        <ele>1291.7</ele>
        <time>2020-08-18T09:46:09Z</time>
      </trkpt>
      <trkpt lat="44.75179" lon="4.13588">
        <ele>1292.6</ele>
        <time>2020-08-18T09:46:34Z</time>
      </trkpt>
      <trkpt lat="44.75097" lon="4.13673">
        <ele>1299.5</ele>
        <time>2020-08-18T11:25:21Z</time>
      </trkpt>
      <trkpt lat="44.75" lon="4.13694">
        <ele>1299.9</ele>
        <time>2020-08-18T11:25:46Z</time>
      </trkpt>
      <trkpt lat="44.74926" lon="4.13768">
        <ele>1300.3</ele>
        <time>2020-08-18T11:26:06Z</time>
      </trkpt>
      <trkpt lat="44.74828" lon="4.13766">
        <ele>1300.7</ele>
        <time>2020-08-18T11:26:36Z</time>
      </trkpt>
      <trkpt lat="44.7474" lon="4.1373">
        <ele>1301.6</ele>
        <time>2020-08-18T11:27:26Z</time>
      </trkpt>
      <trkpt lat="44.74642" lon="4.13732">
        <ele>1304</ele>
        <time>2020-08-18T11:28:27Z</time>
      </trkpt>
      <trkpt lat="44.74563" lon="4.13819">
        <ele>1306.7</ele>
        <time>2020-08-18T11:28:57Z</time>
      </trkpt>
      <trkpt lat="44.74471" lon="4.13861">
        <ele>1307.7</ele>
        <time>2020-08-18T11:29:17Z</time>
      </trkpt>
      <trkpt lat="44.74362" lon="4.13868">
        <ele>1308.3</ele>
        <time>2020-08-18T11:29:37Z</time>
      </trkpt>
      <trkpt lat="44.74265" lon="4.13928">
        <ele>1308.6</ele>
        <time>2020-08-18T11:29:52Z</time>
      </trkpt>
      <trkpt lat="44.74189" lon="4.13999">
        <ele>1309.1</ele>
        <time>2020-08-18T11:30:07Z</time>
      </trkpt>
      <trkpt lat="44.74123" lon="4.1409">
        <ele>1309.4</ele>
        <time>2020-08-18T11:30:22Z</time>
      </trkpt>
      <trkpt lat="44.74091" lon="4.14211">
        <ele>1309</ele>
        <time>2020-08-18T11:30:37Z</time>
      </trkpt>
      <trkpt lat="44.74062" lon="4.14062">
        <ele>1302.6</ele>
        <time>2020-08-18T11:31:12Z</time>
      </trkpt>
      <trkpt lat="44.74121" lon="4.1396">
        <ele>1298.8</ele>
        <time>2020-08-18T11:31:22Z</time>
      </trkpt>
      <trkpt lat="44.74192" lon="4.13865">
        <ele>1295.1</ele>
        <time>2020-08-18T11:31:32Z</time>
      </trkpt>
      <trkpt lat="44.74265" lon="4.13773">
        <ele>1292.4</ele>
        <time>2020-08-18T11:31:42Z</time>
      </trkpt>
      <trkpt lat="44.74337" lon="4.13697">
        <ele>1287.4</ele>
        <time>2020-08-18T11:31:52Z</time>
      </trkpt>
      <trkpt lat="44.74418" lon="4.13645">
        <ele>1288.5</ele>
        <time>2020-08-18T11:32:02Z</time>
      </trkpt>
      <trkpt lat="44.7447" lon="4.13544">
        <ele>1284.1</ele>
        <time>2020-08-18T11:32:12Z</time>
      </trkpt>
      <trkpt lat="44.74361" lon="4.13455">
        <ele>1277.8</ele>
        <time>2020-08-18T11:32:27Z</time>
      </trkpt>
      <trkpt lat="44.74308" lon="4.13294">
        <ele>1270.9</ele>
        <time>2020-08-18T11:32:42Z</time>
      </trkpt>
      <trkpt lat="44.74299" lon="4.13164">
        <ele>1265.4</ele>
        <time>2020-08-18T11:32:52Z</time>
      </trkpt>
      <trkpt lat="44.74303" lon="4.13035">
        <ele>1261.4</ele>
        <time>2020-08-18T11:33:02Z</time>
      </trkpt>
      <trkpt lat="44.74225" lon="4.12882">
        <ele>1255.1</ele>
        <time>2020-08-18T11:33:17Z</time>
      </trkpt>
      <trkpt lat="44.74139" lon="4.12794">
        <ele>1250.6</ele>
        <time>2020-08-18T11:34:02Z</time>
      </trkpt>
      <trkpt lat="44.74039" lon="4.12782">
        <ele>1246.5</ele>
        <time>2020-08-18T11:34:27Z</time>
      </trkpt>
      <trkpt lat="44.73954" lon="4.1272">
        <ele>1243</ele>
        <time>2020-08-18T11:34:47Z</time>
      </trkpt>
      <trkpt lat="44.73909" lon="4.12598">
        <ele>1239.6</ele>
        <time>2020-08-18T11:35:02Z</time>
      </trkpt>
      <trkpt lat="44.73855" lon="4.12474">
        <ele>1237.2</ele>
        <time>2020-08-18T11:35:17Z</time>
      </trkpt>
      <trkpt lat="44.73791" lon="4.12353">
        <ele>1235</ele>
        <time>2020-08-18T11:35:32Z</time>
      </trkpt>
      <trkpt lat="44.73712" lon="4.12241">
        <ele>1231.2</ele>
        <time>2020-08-18T11:35:47Z</time>
      </trkpt>
      <trkpt lat="44.73632" lon="4.12125">
        <ele>1228.1</ele>
        <time>2020-08-18T11:36:02Z</time>
      </trkpt>
      <trkpt lat="44.73634" lon="4.11973">
        <ele>1223.9</ele>
        <time>2020-08-18T11:36:17Z</time>
      </trkpt>
      <trkpt lat="44.73736" lon="4.11888">
        <ele>1219.1</ele>
        <time>2020-08-18T11:36:32Z</time>
      </trkpt>
      <trkpt lat="44.73833" lon="4.11795">
        <ele>1213.8</ele>
        <time>2020-08-18T11:36:47Z</time>
      </trkpt>
      <trkpt lat="44.73862" lon="4.1167">
        <ele>1210.4</ele>
        <time>2020-08-18T11:36:57Z</time>
      </trkpt>
      <trkpt lat="44.739" lon="4.11548">
        <ele>1208.1</ele>
        <time>2020-08-18T11:37:07Z</time>
      </trkpt>
      <trkpt lat="44.73946" lon="4.11434">
        <ele>1207.3</ele>
        <time>2020-08-18T11:37:17Z</time>
      </trkpt>
      <trkpt lat="44.74009" lon="4.11333">
        <ele>1203.2</ele>
        <time>2020-08-18T11:37:32Z</time>
      </trkpt>
      <trkpt lat="44.74071" lon="4.11195">
        <ele>1190.7</ele>
        <time>2020-08-18T11:37:47Z</time>
      </trkpt>
      <trkpt lat="44.74077" lon="4.11062">
        <ele>1180.5</ele>
        <time>2020-08-18T11:38:14Z</time>
      </trkpt>
      <trkpt lat="44.7404" lon="4.10925">
        <ele>1171.3</ele>
        <time>2020-08-18T11:38:29Z</time>
      </trkpt>
      <trkpt lat="44.74048" lon="4.10799">
        <ele>1167.4</ele>
        <time>2020-08-18T11:38:39Z</time>
      </trkpt>
      <trkpt lat="44.74073" lon="4.10669">
        <ele>1163.1</ele>
        <time>2020-08-18T11:38:49Z</time>
      </trkpt>
      <trkpt lat="44.7404" lon="4.10514">
        <ele>1158.5</ele>
        <time>2020-08-18T11:39:04Z</time>
      </trkpt>
      <trkpt lat="44.73986" lon="4.10404">
        <ele>1154.4</ele>
        <time>2020-08-18T11:39:24Z</time>
      </trkpt>
      <trkpt lat="44.73913" lon="4.10307">
        <ele>1149.8</ele>
        <time>2020-08-18T11:40:05Z</time>
      </trkpt>
      <trkpt lat="44.73837" lon="4.10228">
        <ele>1148.5</ele>
        <time>2020-08-18T11:40:45Z</time>
      </trkpt>
      <trkpt lat="44.73746" lon="4.10174">
        <ele>1155.9</ele>
        <time>2020-08-18T11:41:38Z</time>
      </trkpt>
      <trkpt lat="44.73656" lon="4.10122">
        <ele>1162.5</ele>
        <time>2020-08-18T11:42:19Z</time>
      </trkpt>
      <trkpt lat="44.73567" lon="4.1006">
        <ele>1163.4</ele>
        <time>2020-08-18T11:43:04Z</time>
      </trkpt>
      <trkpt lat="44.73544" lon="4.09926">
        <ele>1163.7</ele>
        <time>2020-08-18T11:43:53Z</time>
      </trkpt>
      <trkpt lat="44.7346" lon="4.09845">
        <ele>1164.2</ele>
        <time>2020-08-18T11:44:38Z</time>
      </trkpt>
      <trkpt lat="44.73378" lon="4.09769">
        <ele>1164.4</ele>
        <time>2020-08-18T11:45:23Z</time>
      </trkpt>
      <trkpt lat="44.73293" lon="4.09707">
        <ele>1165</ele>
        <time>2020-08-18T11:46:08Z</time>
      </trkpt>
      <trkpt lat="44.73208" lon="4.09649">
        <ele>1165.2</ele>
        <time>2020-08-18T11:46:53Z</time>
      </trkpt>
      <trkpt lat="44.7318" lon="4.09513">
        <ele>1165.6</ele>
        <time>2020-08-18T11:47:38Z</time>
      </trkpt>
      <trkpt lat="44.7318" lon="4.0938">
        <ele>1166</ele>
        <time>2020-08-18T11:48:13Z</time>
      </trkpt>
      <trkpt lat="44.73159" lon="4.09254">
        <ele>1166.3</ele>
        <time>2020-08-18T11:48:48Z</time>
      </trkpt>
      <trkpt lat="44.73107" lon="4.09137">
        <ele>1166.5</ele>
        <time>2020-08-18T11:49:23Z</time>
      </trkpt>
      <trkpt lat="44.73054" lon="4.09015">
        <ele>1166.7</ele>
        <time>2020-08-18T11:49:58Z</time>
      </trkpt>
      <trkpt lat="44.72975" lon="4.08939">
        <ele>1168.2</ele>
        <time>2020-08-18T11:54:14Z</time>
      </trkpt>
      <trkpt lat="44.72886" lon="4.08956">
        <ele>1169.5</ele>
        <time>2020-08-18T11:54:49Z</time>
      </trkpt>
      <trkpt lat="44.72795" lon="4.08923">
        <ele>1174.2</ele>
        <time>2020-08-18T11:57:23Z</time>
      </trkpt>
      <trkpt lat="44.72702" lon="4.08827">
        <ele>1175.8</ele>
        <time>2020-08-18T11:57:43Z</time>
      </trkpt>
      <trkpt lat="44.72618" lon="4.0873">
        <ele>1178.1</ele>
        <time>2020-08-18T11:58:08Z</time>
      </trkpt>
      <trkpt lat="44.72521" lon="4.08777">
        <ele>1179.1</ele>
        <time>2020-08-18T11:58:38Z</time>
      </trkpt>
      <trkpt lat="44.7243" lon="4.08786">
        <ele>1182</ele>
        <time>2020-08-18T11:59:03Z</time>
      </trkpt>
      <trkpt lat="44.7234" lon="4.08755">
        <ele>1185.2</ele>
        <time>2020-08-18T11:59:23Z</time>
      </trkpt>
      <trkpt lat="44.72414" lon="4.08684">
        <ele>1187.1</ele>
        <time>2020-08-18T12:00:22Z</time>
      </trkpt>
      <trkpt lat="44.72497" lon="4.08631">
        <ele>1190.7</ele>
        <time>2020-08-18T12:01:34Z</time>
      </trkpt>
      <trkpt lat="44.72431" lon="4.08533">
        <ele>1195.6</ele>
        <time>2020-08-18T12:02:40Z</time>
      </trkpt>
      <trkpt lat="44.72394" lon="4.08407">
        <ele>1199.7</ele>
        <time>2020-08-18T12:03:44Z</time>
      </trkpt>
      <trkpt lat="44.72343" lon="4.08285">
        <ele>1203.3</ele>
        <time>2020-08-18T12:04:51Z</time>
      </trkpt>
      <trkpt lat="44.7232" lon="4.08148">
        <ele>1209</ele>
        <time>2020-08-18T12:05:58Z</time>
      </trkpt>
      <trkpt lat="44.72226" lon="4.0812">
        <ele>1212.2</ele>
        <time>2020-08-18T12:07:03Z</time>
      </trkpt>
      <trkpt lat="44.72153" lon="4.08034">
        <ele>1215.1</ele>
        <time>2020-08-18T12:07:59Z</time>
      </trkpt>
      <trkpt lat="44.72064" lon="4.07988">
        <ele>1219.1</ele>
        <time>2020-08-18T12:08:58Z</time>
      </trkpt>
      <trkpt lat="44.71979" lon="4.07937">
        <ele>1228.8</ele>
        <time>2020-08-18T12:10:17Z</time>
      </trkpt>
      <trkpt lat="44.71917" lon="4.0783">
        <ele>1238</ele>
        <time>2020-08-18T12:11:16Z</time>
      </trkpt>
      <trkpt lat="44.71848" lon="4.07731">
        <ele>1245.8</ele>
        <time>2020-08-18T12:12:19Z</time>
      </trkpt>
      <trkpt lat="44.71759" lon="4.07747">
        <ele>1251.5</ele>
        <time>2020-08-18T12:13:28Z</time>
      </trkpt>
      <trkpt lat="44.71667" lon="4.07791">
        <ele>1253.3</ele>
        <time>2020-08-18T12:14:25Z</time>
      </trkpt>
      <trkpt lat="44.71659" lon="4.07664">
        <ele>1257.2</ele>
        <time>2020-08-18T12:16:07Z</time>
      </trkpt>
      <trkpt lat="44.71718" lon="4.07568">
        <ele>1261.3</ele>
        <time>2020-08-18T12:17:00Z</time>
      </trkpt>
      <trkpt lat="44.71725" lon="4.0743">
        <ele>1266.3</ele>
        <time>2020-08-18T12:18:01Z</time>
      </trkpt>
      <trkpt lat="44.71655" lon="4.07334">
        <ele>1272.3</ele>
        <time>2020-08-18T12:19:11Z</time>
      </trkpt>
      <trkpt lat="44.71565" lon="4.07315">
        <ele>1275.3</ele>
        <time>2020-08-18T12:19:56Z</time>
      </trkpt>
      <trkpt lat="44.71469" lon="4.07307">
        <ele>1278.9</ele>
        <time>2020-08-18T12:20:51Z</time>
      </trkpt>
      <trkpt lat="44.71409" lon="4.074">
        <ele>1282</ele>
        <time>2020-08-18T12:21:43Z</time>
      </trkpt>
      <trkpt lat="44.71334" lon="4.07313">
        <ele>1299.1</ele>
        <time>2020-08-18T12:23:27Z</time>
      </trkpt>
      <trkpt lat="44.71358" lon="4.0718">
        <ele>1311</ele>
        <time>2020-08-18T12:24:20Z</time>
      </trkpt>
      <trkpt lat="44.71381" lon="4.07052">
        <ele>1318.3</ele>
        <time>2020-08-18T12:25:11Z</time>
      </trkpt>
      <trkpt lat="44.7141" lon="4.06932">
        <ele>1322.6</ele>
        <time>2020-08-18T12:25:51Z</time>
      </trkpt>
      <trkpt lat="44.71389" lon="4.06803">
        <ele>1326.7</ele>
        <time>2020-08-18T12:27:18Z</time>
      </trkpt>
      <trkpt lat="44.71364" lon="4.06673">
        <ele>1328.7</ele>
        <time>2020-08-18T12:27:48Z</time>
      </trkpt>
      <trkpt lat="44.71335" lon="4.06538">
        <ele>1331.4</ele>
        <time>2020-08-18T12:28:36Z</time>
      </trkpt>
      <trkpt lat="44.71284" lon="4.06421">
        <ele>1333.8</ele>
        <time>2020-08-18T12:29:30Z</time>
      </trkpt>
      <trkpt lat="44.71202" lon="4.0636">
        <ele>1335.8</ele>
        <time>2020-08-18T12:30:15Z</time>
      </trkpt>
      <trkpt lat="44.71192" lon="4.06225">
        <ele>1337.9</ele>
        <time>2020-08-18T12:31:02Z</time>
      </trkpt>
      <trkpt lat="44.71187" lon="4.06096">
        <ele>1339.3</ele>
        <time>2020-08-18T12:31:42Z</time>
      </trkpt>
      <trkpt lat="44.71142" lon="4.05974">
        <ele>1340.8</ele>
        <time>2020-08-18T12:32:17Z</time>
      </trkpt>
      <trkpt lat="44.71136" lon="4.05842">
        <ele>1342.8</ele>
        <time>2020-08-18T12:32:57Z</time>
      </trkpt>
      <trkpt lat="44.71123" lon="4.05697">
        <ele>1344.4</ele>
        <time>2020-08-18T12:33:37Z</time>
      </trkpt>
      <trkpt lat="44.71037" lon="4.05649">
        <ele>1345.9</ele>
        <time>2020-08-18T12:34:16Z</time>
      </trkpt>
      <trkpt lat="44.70987" lon="4.0554">
        <ele>1347.8</ele>
        <time>2020-08-18T12:35:02Z</time>
      </trkpt>
      <trkpt lat="44.7093" lon="4.05431">
        <ele>1349.3</ele>
        <time>2020-08-18T12:35:48Z</time>
      </trkpt>
      <trkpt lat="44.70832" lon="4.05436">
        <ele>1351.3</ele>
        <time>2020-08-18T12:36:39Z</time>
      </trkpt>
      <trkpt lat="44.70732" lon="4.0541">
        <ele>1353.3</ele>
        <time>2020-08-18T12:37:28Z</time>
      </trkpt>
      <trkpt lat="44.70641" lon="4.05436">
        <ele>1355.6</ele>
        <time>2020-08-18T12:38:15Z</time>
      </trkpt>
      <trkpt lat="44.70553" lon="4.05372">
        <ele>1359.3</ele>
        <time>2020-08-18T12:39:16Z</time>
      </trkpt>
      <trkpt lat="44.70486" lon="4.0527">
        <ele>1363</ele>
        <time>2020-08-18T12:40:22Z</time>
      </trkpt>
      <trkpt lat="44.70393" lon="4.05274">
        <ele>1365</ele>
        <time>2020-08-18T12:41:09Z</time>
      </trkpt>
      <trkpt lat="44.70301" lon="4.05319">
        <ele>1367.4</ele>
        <time>2020-08-18T12:42:00Z</time>
      </trkpt>
      <trkpt lat="44.70203" lon="4.0533">
        <ele>1369.9</ele>
        <time>2020-08-18T12:42:54Z</time>
      </trkpt>
      <trkpt lat="44.70109" lon="4.05318">
        <ele>1373.6</ele>
        <time>2020-08-18T12:43:41Z</time>
      </trkpt>
      <trkpt lat="44.70023" lon="4.05272">
        <ele>1378.4</ele>
        <time>2020-08-18T12:44:27Z</time>
      </trkpt>
      <trkpt lat="44.69937" lon="4.05223">
        <ele>1382.4</ele>
        <time>2020-08-18T12:45:12Z</time>
      </trkpt>
      <trkpt lat="44.69862" lon="4.05132">
        <ele>1386.1</ele>
        <time>2020-08-18T12:46:03Z</time>
      </trkpt>
      <trkpt lat="44.69809" lon="4.05022">
        <ele>1389.3</ele>
        <time>2020-08-18T12:46:51Z</time>
      </trkpt>
      <trkpt lat="44.69732" lon="4.04931">
        <ele>1392.3</ele>
        <time>2020-08-18T12:47:36Z</time>
      </trkpt>
      <trkpt lat="44.6967" lon="4.04833">
        <ele>1394.7</ele>
        <time>2020-08-18T12:48:16Z</time>
      </trkpt>
      <trkpt lat="44.69609" lon="4.04695">
        <ele>1398.9</ele>
        <time>2020-08-18T12:49:22Z</time>
      </trkpt>
      <trkpt lat="44.69539" lon="4.0461">
        <ele>1398.8</ele>
        <time>2020-08-18T12:49:37Z</time>
      </trkpt>
      <trkpt lat="44.6949" lon="4.04476">
        <ele>1398.4</ele>
        <time>2020-08-18T12:49:52Z</time>
      </trkpt>
      <trkpt lat="44.69384" lon="4.04416">
        <ele>1395.9</ele>
        <time>2020-08-18T12:50:07Z</time>
      </trkpt>
      <trkpt lat="44.69346" lon="4.04293">
        <ele>1392.3</ele>
        <time>2020-08-18T12:50:22Z</time>
      </trkpt>
      <trkpt lat="44.69355" lon="4.04156">
        <ele>1389.6</ele>
        <time>2020-08-18T12:50:32Z</time>
      </trkpt>
      <trkpt lat="44.6935" lon="4.04016">
        <ele>1387.8</ele>
        <time>2020-08-18T12:50:42Z</time>
      </trkpt>
      <trkpt lat="44.69375" lon="4.03883">
        <ele>1386.7</ele>
        <time>2020-08-18T12:50:52Z</time>
      </trkpt>
      <trkpt lat="44.69384" lon="4.03754">
        <ele>1384.3</ele>
        <time>2020-08-18T12:51:02Z</time>
      </trkpt>
      <trkpt lat="44.69398" lon="4.03609">
        <ele>1382.6</ele>
        <time>2020-08-18T12:51:12Z</time>
      </trkpt>
      <trkpt lat="44.69444" lon="4.03467">
        <ele>1380.7</ele>
        <time>2020-08-18T12:51:22Z</time>
      </trkpt>
      <trkpt lat="44.69497" lon="4.03332">
        <ele>1379.7</ele>
        <time>2020-08-18T12:51:32Z</time>
      </trkpt>
      <trkpt lat="44.69613" lon="4.03337">
        <ele>1373.5</ele>
        <time>2020-08-18T12:51:47Z</time>
      </trkpt>
      <trkpt lat="44.69609" lon="4.03172">
        <ele>1360.5</ele>
        <time>2020-08-18T12:52:02Z</time>
      </trkpt>
      <trkpt lat="44.69617" lon="4.03046">
        <ele>1349.5</ele>
        <time>2020-08-18T12:52:12Z</time>
      </trkpt>
      <trkpt lat="44.69662" lon="4.02926">
        <ele>1355.9</ele>
        <time>2020-08-18T12:52:22Z</time>
      </trkpt>
      <trkpt lat="44.69704" lon="4.02809">
        <ele>1353.4</ele>
        <time>2020-08-18T12:52:32Z</time>
      </trkpt>
      <trkpt lat="44.69738" lon="4.02692">
        <ele>1348.9</ele>
        <time>2020-08-18T12:52:42Z</time>
      </trkpt>
      <trkpt lat="44.69792" lon="4.02545">
        <ele>1343.7</ele>
        <time>2020-08-18T12:52:57Z</time>
      </trkpt>
      <trkpt lat="44.69786" lon="4.02363">
        <ele>1339</ele>
        <time>2020-08-18T12:53:12Z</time>
      </trkpt>
      <trkpt lat="44.69755" lon="4.02233">
        <ele>1337.9</ele>
        <time>2020-08-18T12:53:22Z</time>
      </trkpt>
      <trkpt lat="44.69764" lon="4.02099">
        <ele>1337</ele>
        <time>2020-08-18T12:53:37Z</time>
      </trkpt>
      <trkpt lat="44.69662" lon="4.02136">
        <ele>1333.8</ele>
        <time>2020-08-18T12:54:52Z</time>
      </trkpt>
      <trkpt lat="44.69573" lon="4.02224">
        <ele>1333.4</ele>
        <time>2020-08-18T12:55:12Z</time>
      </trkpt>
      <trkpt lat="44.69487" lon="4.0218">
        <ele>1333.2</ele>
        <time>2020-08-18T12:56:24Z</time>
      </trkpt>
      <trkpt lat="44.69431" lon="4.02066">
        <ele>1332.3</ele>
        <time>2020-08-18T12:57:21Z</time>
      </trkpt>
      <trkpt lat="44.69353" lon="4.01979">
        <ele>1330.6</ele>
        <time>2020-08-18T12:58:06Z</time>
      </trkpt>
      <trkpt lat="44.69261" lon="4.01948">
        <ele>1330.5</ele>
        <time>2020-08-18T12:58:46Z</time>
      </trkpt>
      <trkpt lat="44.69174" lon="4.01981">
        <ele>1331</ele>
        <time>2020-08-18T12:59:16Z</time>
      </trkpt>
      <trkpt lat="44.69077" lon="4.02033">
        <ele>1331.2</ele>
        <time>2020-08-18T12:59:45Z</time>
      </trkpt>
      <trkpt lat="44.68984" lon="4.0207">
        <ele>1331.1</ele>
        <time>2020-08-18T13:00:31Z</time>
      </trkpt>
      <trkpt lat="44.68915" lon="4.02161">
        <ele>1331.1</ele>
        <time>2020-08-18T13:01:18Z</time>
      </trkpt>
      <trkpt lat="44.68889" lon="4.02286">
        <ele>1331.7</ele>
        <time>2020-08-18T13:01:53Z</time>
      </trkpt>
      <trkpt lat="44.68808" lon="4.02354">
        <ele>1334.2</ele>
        <time>2020-08-18T13:03:07Z</time>
      </trkpt>
      <trkpt lat="44.68717" lon="4.02358">
        <ele>1337.2</ele>
        <time>2020-08-18T13:04:15Z</time>
      </trkpt>
      <trkpt lat="44.6863" lon="4.02303">
        <ele>1340.9</ele>
        <time>2020-08-18T13:05:19Z</time>
      </trkpt>
      <trkpt lat="44.68555" lon="4.02221">
        <ele>1347.3</ele>
        <time>2020-08-18T13:06:28Z</time>
      </trkpt>
      <trkpt lat="44.6849" lon="4.02321">
        <ele>1358</ele>
        <time>2020-08-18T13:07:46Z</time>
      </trkpt>
      <trkpt lat="44.68406" lon="4.02367">
        <ele>1365</ele>
        <time>2020-08-18T13:08:49Z</time>
      </trkpt>
      <trkpt lat="44.68316" lon="4.02386">
        <ele>1368</ele>
        <time>2020-08-18T13:09:24Z</time>
      </trkpt>
      <trkpt lat="44.68233" lon="4.02331">
        <ele>1370.7</ele>
        <time>2020-08-18T13:09:54Z</time>
      </trkpt>
      <trkpt lat="44.6814" lon="4.02347">
        <ele>1377.2</ele>
        <time>2020-08-18T13:10:44Z</time>
      </trkpt>
      <trkpt lat="44.68054" lon="4.02397">
        <ele>1384</ele>
        <time>2020-08-18T13:11:39Z</time>
      </trkpt>
      <trkpt lat="44.67975" lon="4.02459">
        <ele>1389.9</ele>
        <time>2020-08-18T13:12:36Z</time>
      </trkpt>
      <trkpt lat="44.67888" lon="4.02512">
        <ele>1396.1</ele>
        <time>2020-08-18T13:13:49Z</time>
      </trkpt>
      <trkpt lat="44.678" lon="4.02572">
        <ele>1400.1</ele>
        <time>2020-08-18T13:14:47Z</time>
      </trkpt>
      <trkpt lat="44.67751" lon="4.02681">
        <ele>1403.6</ele>
        <time>2020-08-18T13:15:39Z</time>
      </trkpt>
      <trkpt lat="44.67661" lon="4.02705">
        <ele>1407.2</ele>
        <time>2020-08-18T13:16:48Z</time>
      </trkpt>
      <trkpt lat="44.67565" lon="4.02701">
        <ele>1411.9</ele>
        <time>2020-08-18T13:18:02Z</time>
      </trkpt>
      <trkpt lat="44.67469" lon="4.02692">
        <ele>1417.7</ele>
        <time>2020-08-18T13:19:10Z</time>
      </trkpt>
      <trkpt lat="44.67373" lon="4.02688">
        <ele>1425.1</ele>
        <time>2020-08-18T13:20:21Z</time>
      </trkpt>
      <trkpt lat="44.67275" lon="4.02663">
        <ele>1431.4</ele>
        <time>2020-08-18T13:21:16Z</time>
      </trkpt>
      <trkpt lat="44.67223" lon="4.02556">
        <ele>1452.8</ele>
        <time>2020-08-18T13:34:50Z</time>
      </trkpt>
      <trkpt lat="44.67174" lon="4.02411">
        <ele>1455.2</ele>
        <time>2020-08-18T13:35:10Z</time>
      </trkpt>
      <trkpt lat="44.67086" lon="4.02348">
        <ele>1455.3</ele>
        <time>2020-08-18T13:35:25Z</time>
      </trkpt>
      <trkpt lat="44.66992" lon="4.02388">
        <ele>1455.8</ele>
        <time>2020-08-18T13:35:55Z</time>
      </trkpt>
      <trkpt lat="44.66895" lon="4.0243">
        <ele>1454.8</ele>
        <time>2020-08-18T13:36:36Z</time>
      </trkpt>
      <trkpt lat="44.6681" lon="4.02473">
        <ele>1455.7</ele>
        <time>2020-08-18T13:37:17Z</time>
      </trkpt>
      <trkpt lat="44.66717" lon="4.02513">
        <ele>1459</ele>
        <time>2020-08-18T13:38:15Z</time>
      </trkpt>
      <trkpt lat="44.66622" lon="4.02537">
        <ele>1463.4</ele>
        <time>2020-08-18T13:38:45Z</time>
      </trkpt>
      <trkpt lat="44.66527" lon="4.02526">
        <ele>1462.1</ele>
        <time>2020-08-18T13:39:00Z</time>
      </trkpt>
      <trkpt lat="44.66411" lon="4.02539">
        <ele>1460.2</ele>
        <time>2020-08-18T13:39:15Z</time>
      </trkpt>
      <trkpt lat="44.6633" lon="4.0261">
        <ele>1458.8</ele>
        <time>2020-08-18T13:39:25Z</time>
      </trkpt>
      <trkpt lat="44.66236" lon="4.02642">
        <ele>1458</ele>
        <time>2020-08-18T13:39:35Z</time>
      </trkpt>
      <trkpt lat="44.66134" lon="4.02616">
        <ele>1456.2</ele>
        <time>2020-08-18T13:39:45Z</time>
      </trkpt>
      <trkpt lat="44.66025" lon="4.02586">
        <ele>1453.9</ele>
        <time>2020-08-18T13:39:55Z</time>
      </trkpt>
      <trkpt lat="44.65931" lon="4.02666">
        <ele>1455.7</ele>
        <time>2020-08-18T13:40:05Z</time>
      </trkpt>
      <trkpt lat="44.65886" lon="4.0279">
        <ele>1452.8</ele>
        <time>2020-08-18T13:40:20Z</time>
      </trkpt>
      <trkpt lat="44.65829" lon="4.02893">
        <ele>1449.6</ele>
        <time>2020-08-18T13:40:50Z</time>
      </trkpt>
      <trkpt lat="44.65732" lon="4.02921">
        <ele>1443.5</ele>
        <time>2020-08-18T13:41:30Z</time>
      </trkpt>
      <trkpt lat="44.65631" lon="4.02934">
        <ele>1441.1</ele>
        <time>2020-08-18T13:42:10Z</time>
      </trkpt>
      <trkpt lat="44.65536" lon="4.02947">
        <ele>1441.2</ele>
        <time>2020-08-18T13:42:45Z</time>
      </trkpt>
      <trkpt lat="44.65444" lon="4.02982">
        <ele>1441.9</ele>
        <time>2020-08-18T13:43:15Z</time>
      </trkpt>
      <trkpt lat="44.65352" lon="4.0302">
        <ele>1442.7</ele>
        <time>2020-08-18T13:43:50Z</time>
      </trkpt>
      <trkpt lat="44.65263" lon="4.0306">
        <ele>1443.3</ele>
        <time>2020-08-18T13:44:30Z</time>
      </trkpt>
      <trkpt lat="44.65191" lon="4.03138">
        <ele>1445.3</ele>
        <time>2020-08-18T13:45:25Z</time>
      </trkpt>
      <trkpt lat="44.65177" lon="4.03268">
        <ele>1448.2</ele>
        <time>2020-08-18T13:46:25Z</time>
      </trkpt>
      <trkpt lat="44.65183" lon="4.03398">
        <ele>1450.1</ele>
        <time>2020-08-18T13:47:17Z</time>
      </trkpt>
      <trkpt lat="44.6519" lon="4.03539">
        <ele>1450.8</ele>
        <time>2020-08-18T13:47:47Z</time>
      </trkpt>
      <trkpt lat="44.65194" lon="4.03668">
        <ele>1451.5</ele>
        <time>2020-08-18T13:48:17Z</time>
      </trkpt>
      <trkpt lat="44.65171" lon="4.03802">
        <ele>1452.5</ele>
        <time>2020-08-18T13:49:21Z</time>
      </trkpt>
      <trkpt lat="44.65135" lon="4.03929">
        <ele>1453.9</ele>
        <time>2020-08-18T13:50:21Z</time>
      </trkpt>
      <trkpt lat="44.6509" lon="4.04055">
        <ele>1455.2</ele>
        <time>2020-08-18T13:51:06Z</time>
      </trkpt>
      <trkpt lat="44.65045" lon="4.04166">
        <ele>1456.5</ele>
        <time>2020-08-18T13:51:46Z</time>
      </trkpt>
      <trkpt lat="44.65" lon="4.04281">
        <ele>1458.9</ele>
        <time>2020-08-18T13:54:04Z</time>
      </trkpt>
      <trkpt lat="44.6493" lon="4.04411">
        <ele>1462.6</ele>
        <time>2020-08-18T13:54:24Z</time>
      </trkpt>
      <trkpt lat="44.64832" lon="4.04482">
        <ele>1461.2</ele>
        <time>2020-08-18T13:54:34Z</time>
      </trkpt>
      <trkpt lat="44.64721" lon="4.0458">
        <ele>1459.4</ele>
        <time>2020-08-18T13:54:44Z</time>
      </trkpt>
      <trkpt lat="44.64612" lon="4.04678">
        <ele>1457</ele>
        <time>2020-08-18T13:54:54Z</time>
      </trkpt>
      <trkpt lat="44.64525" lon="4.04802">
        <ele>1453.2</ele>
        <time>2020-08-18T13:55:04Z</time>
      </trkpt>
      <trkpt lat="44.64428" lon="4.04903">
        <ele>1449.5</ele>
        <time>2020-08-18T13:55:14Z</time>
      </trkpt>
      <trkpt lat="44.64496" lon="4.04802">
        <ele>1440.5</ele>
        <time>2020-08-18T13:55:34Z</time>
      </trkpt>
      <trkpt lat="44.6453" lon="4.04661">
        <ele>1434.2</ele>
        <time>2020-08-18T13:55:44Z</time>
      </trkpt>
      <trkpt lat="44.64548" lon="4.04506">
        <ele>1428.7</ele>
        <time>2020-08-18T13:55:54Z</time>
      </trkpt>
      <trkpt lat="44.64581" lon="4.04357">
        <ele>1422</ele>
        <time>2020-08-18T13:56:04Z</time>
      </trkpt>
      <trkpt lat="44.64496" lon="4.04406">
        <ele>1416</ele>
        <time>2020-08-18T13:56:19Z</time>
      </trkpt>
      <trkpt lat="44.64443" lon="4.0455">
        <ele>1409.7</ele>
        <time>2020-08-18T13:56:29Z</time>
      </trkpt>
      <trkpt lat="44.6435" lon="4.04627">
        <ele>1398.8</ele>
        <time>2020-08-18T13:56:39Z</time>
      </trkpt>
      <trkpt lat="44.64244" lon="4.04704">
        <ele>1392.3</ele>
        <time>2020-08-18T13:56:49Z</time>
      </trkpt>
      <trkpt lat="44.6416" lon="4.04851">
        <ele>1377.4</ele>
        <time>2020-08-18T13:56:59Z</time>
      </trkpt>
      <trkpt lat="44.64084" lon="4.05006">
        <ele>1366.3</ele>
        <time>2020-08-18T13:57:09Z</time>
      </trkpt>
      <trkpt lat="44.64035" lon="4.05166">
        <ele>1355.3</ele>
        <time>2020-08-18T13:57:19Z</time>
      </trkpt>
      <trkpt lat="44.64016" lon="4.05338">
        <ele>1339.3</ele>
        <time>2020-08-18T13:57:29Z</time>
      </trkpt>
      <trkpt lat="44.63926" lon="4.05189">
        <ele>1321.7</ele>
        <time>2020-08-18T13:58:04Z</time>
      </trkpt>
      <trkpt lat="44.6386" lon="4.05075">
        <ele>1315.2</ele>
        <time>2020-08-18T13:58:19Z</time>
      </trkpt>
    </trkseg>
  </trk>
</gpx>